Thursday, December 18, 2014, 11:20 AM EST
Back to Local

KCXY, Harrisburg Capital City

Location: New Cumberland, PA, United States Lat: 40.217
Local Time: 11:20 AM EST (16:20 GMT) Lon: -76.85
Time Zone: US/Eastern Elev: 347 ft

Show me the last for .
Show Coded

Time T Td Feel RH Dir Speed Gust Alt SLP Vis Weather Sky Remarks
2014-12-18 10:56 36 23 27 58 280° 14 - 30.12 30.13 10 BKN033 OVC047 None
2014-12-18 09:56 35 22 27 58 280° 10 - 30.13 30.14 10 BKN038 OVC046 None
2014-12-18 07:56 34 20 22 55 290° 12 22 30.11 30.12 10 OVC037 None
2014-12-18 05:56 35 17 26 47 300° 14 - 30.08 30.09 10 OVC044 None
2014-12-18 04:56 35 16 27 45 300° 10 - 30.07 30.08 10 OVC048 None
2014-12-18 03:56 35 17 22 47 300° 18 28 30.06 30.07 10 OVC049 None
2014-12-18 02:56 36 20 24 51 300° 14 24 30.06 30.07 10 OVC043 None
2014-12-18 01:56 36 20 25 51 310° 13 22 30.05 30.06 10 OVC045 None
2014-12-18 00:56 37 22 27 53 310° 12 18 30.04 30.05 10 OVC041 6-hr Min Temp (1am): 37.0°F
6-hr Max Temp (1am): 41.0°F
2014-12-17 23:56 37 21 26 51 310° 16 24 30.03 30.04 10 OVC044 24-hr Min Temp (12am): 37.0°F
24-hr Max Temp (12am): 50.0°F
2014-12-17 22:56 38 21 26 50 310° 20 30 30.03 30.04 10 OVC044 Peak wind: 32 mph (28 kts) from 310° at 44 min
2014-12-17 21:56 38 22 27 52 290° 12 22 30.03 30.04 10 OVC042 None
2014-12-17 20:56 38 22 30 52 290° 14 - 30.03 30.04 10 OVC042 None
2014-12-17 19:56 39 22 29 49 300° 15 21 30.02 30.03 10 BKN045 None
2014-12-17 18:56 41 25 34 52 320° 12 - 30.02 30.03 10 BKN039 OVC048 6-hr Min Temp (7pm): 41.0°F
6-hr Max Temp (7pm): 46.9°F
2014-12-17 17:56 41 27 32 57 270° 13 20 29.99 30.00 10 OVC044 None
2014-12-17 16:56 42 27 33 54 290° 15 20 29.99 30.00 10 BKN048 None
2014-12-17 15:56 44 27 35 50 270° 14 23 29.97 29.98 10 BKN050 None
2014-12-17 14:56 44 29 35 55 260° 13 24 29.97 29.98 10 BKN040 OVC048 Peak wind: 29 mph (26 kts) from 280° at 01 min
2014-12-17 13:56 46 31 41 55 270° 12 - 29.95 29.96 10 OVC041 Peak wind: 29 mph (26 kts) from 270° at 39 min
2014-12-17 12:56 47 32 39 55 270° 15 23 29.94 29.95 10 OVC041 6-hr Min Temp (1pm): 43.0°F
6-hr Max Temp (1pm): 50.0°F
2014-12-17 11:56 49 35 41 58 290° 17 24 29.93 29.94 10 BKN038 BKN046 OVC055 None

Support USWX by starting your Amazon purchase here.